Time;durP1;ratioP1;P1;durP2;ratioP2;P2;SDS_P1;SDS_P2;PMS_P1;PMS_P2;Temp;Humidity;BMP_temperature;BMP_pressure;BME280_temperature;BME280_humidity;BME280_pressure;Samples;Min_cycle;Max_cycle;Signal;HPM_P1;HPM_P2
2022/01/25 00:26:35;;;;;;;;;;;-0.40;99.90;;;;;;5010787;28;19963;-69
2022/01/25 00:29:07;;;;;;;;;;;-0.50;99.90;;;;;;5035160;28;20090;-69
2022/01/25 00:31:35;;;;;;;;;;;-0.50;99.90;;;;;;5034093;28;19921;-69
2022/01/25 00:34:02;;;;;;;;;;;-0.50;99.90;;;;;;5037282;28;19921;-69
2022/01/25 00:36:29;;;;;;;;;;;-0.60;99.90;;;;;;5043220;28;20208;-69
2022/01/25 00:38:56;;;;;;;;;;;-0.60;99.90;;;;;;5041733;28;19925;-69
2022/01/25 00:41:23;;;;;;;;;;;-0.50;99.90;;;;;;5039533;28;19927;-69
2022/01/25 00:43:50;;;;;;;;;;;-0.60;99.90;;;;;;5027471;28;19928;-68
2022/01/25 00:46:20;;;;;;;;;;;-0.60;99.90;;;;;;5020317;28;19933;-69
2022/01/25 00:48:52;;;;;;;;;;;-0.60;99.90;;;;;;5017982;28;19968;-70
2022/01/25 00:51:56;;;;;;;;;;;-0.70;99.90;;;;;;5018659;28;19944;-69
2022/01/25 00:54:16;;;;;;;;;;;-0.60;99.90;;;;;;5037635;28;19921;-69
2022/01/25 00:56:44;;;;;;;;;;;-0.60;99.90;;;;;;5042066;28;19928;-69
2022/01/25 00:59:12;;;;;;;;;;;-0.70;99.90;;;;;;5036637;28;19921;-69
2022/01/25 01:01:40;;;;;;;;;;;-0.70;99.90;;;;;;5038888;28;19921;-68
2022/01/25 01:04:08;;;;;;;;;;;-0.70;99.90;;;;;;5037975;28;20231;-69
2022/01/25 01:06:35;;;;;;;;;;;-0.70;99.90;;;;;;5027274;28;19921;-69
2022/01/25 01:09:01;;;;;;;;;;;-0.70;99.90;;;;;;5018849;28;20175;-69
2022/01/25 01:11:34;;;;;;;;;;;-0.80;99.90;;;;;;5033518;28;19960;-69
2022/01/25 01:14:07;;;;;;;;;;;-0.80;99.90;;;;;;5029007;28;19944;-69
2022/01/25 01:30:29;;;;;;;;;;;-0.90;99.90;;;;;;5036415;28;20241;-69
2022/01/25 01:38:55;;;;;;;;;;;-1.00;99.90;;;;;;5002199;28;19929;-69
2022/01/25 01:41:49;;;;;;;;;;;-1.00;99.90;;;;;;5038253;28;19921;-69
2022/01/25 01:44:22;;;;;;;;;;;-1.00;99.90;;;;;;5010983;28;19917;-69
2022/01/25 01:47:02;;;;;;;;;;;-1.00;99.90;;;;;;5035822;28;19922;-69
2022/01/25 01:49:30;;;;;;;;;;;-1.00;99.90;;;;;;5035076;28;19928;-69
2022/01/25 01:51:58;;;;;;;;;;;-1.00;99.90;;;;;;5027915;28;19928;-69
2022/01/25 01:54:25;;;;;;;;;;;-1.10;99.90;;;;;;5018022;28;20117;-69
2022/01/25 01:56:51;;;;;;;;;;;-1.10;99.90;;;;;;5039366;28;19921;-69
2022/01/25 01:59:18;;;;;;;;;;;-1.10;99.90;;;;;;5038640;28;19925;-69
2022/01/25 02:01:45;;;;;;;;;;;-1.10;99.90;;;;;;5026982;28;20229;-69
2022/01/25 02:04:13;;;;;;;;;;;-1.10;99.90;;;;;;5026909;28;19928;-69
2022/01/25 02:06:40;;;;;;;;;;;-1.10;99.90;;;;;;5042146;28;19927;-69
2022/01/25 02:09:09;;;;;;;;;;;-1.10;99.90;;;;;;5043915;28;19921;-69
2022/01/25 02:11:35;;;;;;;;;;;-1.10;99.90;;;;;;5030737;28;19964;-69
2022/01/25 02:14:06;;;;;;;;;;;-1.10;99.90;;;;;;5046478;28;20112;-69
2022/01/25 02:16:42;;;;;;;;;;;-1.10;99.90;;;;;;5046642;28;19960;-69
2022/01/25 02:24:40;;;;;;;;;;;-1.20;99.90;;;;;;5035395;28;19960;-69
2022/01/25 02:27:07;;;;;;;;;;;-1.20;99.90;;;;;;5037384;28;19925;-69
2022/01/25 02:29:33;;;;;;;;;;;-1.20;99.90;;;;;;5032697;28;19944;-68
2022/01/25 02:32:00;;;;;;;;;;;-1.20;99.90;;;;;;5027980;28;19929;-69
2022/01/25 02:34:27;;;;;;;;;;;-1.30;99.90;;;;;;5043654;28;19956;-69
2022/01/25 02:36:58;;;;;;;;;;;-1.20;99.90;;;;;;5033973;28;19929;-69
2022/01/25 02:39:24;;;;;;;;;;;-1.20;99.90;;;;;;5034256;28;19927;-69
2022/01/25 02:41:52;;;;;;;;;;;-1.30;99.90;;;;;;5042551;28;19921;-69
2022/01/25 02:44:24;;;;;;;;;;;-1.30;99.90;;;;;;5032194;28;20263;-69
2022/01/25 02:49:36;;;;;;;;;;;-1.40;99.90;;;;;;5047646;23;19936;-70
2022/01/25 02:52:04;;;;;;;;;;;-1.40;99.90;;;;;;5017980;28;19928;-69
2022/01/25 02:54:31;;;;;;;;;;;-1.40;99.90;;;;;;5022638;28;19921;-70
2022/01/25 02:56:58;;;;;;;;;;;-1.40;99.90;;;;;;5025244;28;19923;-69
2022/01/25 02:59:26;;;;;;;;;;;-1.40;99.90;;;;;;5025534;28;19936;-70
2022/01/25 03:01:53;;;;;;;;;;;-1.40;99.90;;;;;;5016471;28;19929;-69
2022/01/25 03:04:22;;;;;;;;;;;-1.40;99.90;;;;;;5016822;28;20215;-70
2022/01/25 03:06:49;;;;;;;;;;;-1.30;99.90;;;;;;5014723;28;19922;-69
2022/01/25 03:09:17;;;;;;;;;;;-1.30;99.90;;;;;;5025310;28;19980;-70
2022/01/25 03:11:45;;;;;;;;;;;-1.30;99.90;;;;;;5024884;28;20268;-69
2022/01/25 03:14:12;;;;;;;;;;;-1.30;99.90;;;;;;5037086;28;20120;-70
2022/01/25 03:16:42;;;;;;;;;;;-1.30;99.90;;;;;;5025269;28;19922;-69
2022/01/25 03:21:51;;;;;;;;;;;-1.30;99.90;;;;;;5023906;28;20086;-69
2022/01/25 03:24:18;;;;;;;;;;;-1.30;99.90;;;;;;5034906;28;19940;-70
2022/01/25 03:26:45;;;;;;;;;;;-1.20;99.90;;;;;;5044205;28;19921;-69
2022/01/25 03:29:12;;;;;;;;;;;-1.20;99.90;;;;;;5008260;28;20227;-70
2022/01/25 03:31:38;;;;;;;;;;;-1.10;99.90;;;;;;5024871;28;19921;-70
2022/01/25 03:34:05;;;;;;;;;;;-1.20;99.90;;;;;;5023984;28;19960;-69
2022/01/25 03:36:31;;;;;;;;;;;-1.10;99.90;;;;;;5025093;28;19928;-70
2022/01/25 03:38:58;;;;;;;;;;;-1.10;99.90;;;;;;5009817;28;19929;-70
2022/01/25 03:41:26;;;;;;;;;;;-1.10;99.90;;;;;;5032232;28;20060;-70
2022/01/25 03:43:55;;;;;;;;;;;-1.00;99.90;;;;;;5023254;28;20194;-70
2022/01/25 03:46:30;;;;;;;;;;;-1.00;99.90;;;;;;5024722;28;20205;-70
2022/01/25 03:51:40;;;;;;;;;;;-0.90;99.90;;;;;;5025156;28;19924;-70
2022/01/25 03:54:07;;;;;;;;;;;-0.80;99.90;;;;;;5023001;28;19984;-70
2022/01/25 03:56:35;;;;;;;;;;;-0.80;99.90;;;;;;5044106;28;19921;-70
2022/01/25 03:59:02;;;;;;;;;;;-0.70;99.90;;;;;;5026183;28;20220;-70
2022/01/25 04:01:29;;;;;;;;;;;-0.70;99.90;;;;;;5024292;28;19921;-70
2022/01/25 04:04:00;;;;;;;;;;;-0.60;99.90;;;;;;5023824;28;19922;-70
2022/01/25 04:06:29;;;;;;;;;;;-0.60;99.90;;;;;;5004970;28;19922;-70
2022/01/25 04:08:56;;;;;;;;;;;-0.60;99.90;;;;;;5020206;28;20279;-70
2022/01/25 04:11:23;;;;;;;;;;;-0.50;99.90;;;;;;5023999;28;19922;-70
2022/01/25 04:13:53;;;;;;;;;;;-0.40;99.90;;;;;;5019522;28;19921;-70
2022/01/25 04:16:24;;;;;;;;;;;-0.40;99.90;;;;;;5007505;28;19990;-70
2022/01/25 04:19:01;;;;;;;;;;;-0.40;99.90;;;;;;5018832;28;19953;-70
2022/01/25 04:24:38;;;;;;;;;;;-0.40;99.90;;;;;;5004332;28;20252;-70
2022/01/25 04:25:03;;;;;;;;;;;-0.40;99.90;;;;;;5043610;28;19921;-70
2022/01/25 04:27:30;;;;;;;;;;;-0.40;99.90;;;;;;5043876;28;19917;-70
2022/01/25 04:29:58;;;;;;;;;;;-0.40;99.90;;;;;;5043302;28;19921;-70
2022/01/25 04:32:33;;;;;;;;;;;-0.40;99.90;;;;;;5023319;28;20339;-69
2022/01/25 04:35:11;;;;;;;;;;;-0.40;99.90;;;;;;5022861;28;19925;-70
2022/01/25 04:54:09;;;;;;;;;;;-0.50;99.90;;;;;;4996824;28;20201;-70
2022/01/25 04:56:42;;;;;;;;;;;-0.60;99.90;;;;;;5004207;28;19990;-70
2022/01/25 04:59:15;;;;;;;;;;;-0.60;99.90;;;;;;5019659;28;19927;-70
2022/01/25 05:01:44;;;;;;;;;;;-0.50;99.90;;;;;;5016532;28;20097;-70
2022/01/25 05:04:15;;;;;;;;;;;-0.50;99.90;;;;;;5011453;28;19921;-70
2022/01/25 05:06:44;;;;;;;;;;;-0.40;99.90;;;;;;5023700;28;19921;-69
2022/01/25 05:09:13;;;;;;;;;;;-0.40;99.90;;;;;;5022174;28;19922;-69
2022/01/25 05:11:44;;;;;;;;;;;-0.40;99.90;;;;;;5030278;28;19921;-70
2022/01/25 05:14:18;;;;;;;;;;;-0.40;99.90;;;;;;5022691;28;19959;-70
2022/01/25 05:16:56;;;;;;;;;;;-0.40;99.90;;;;;;5036816;28;19921;-70
2022/01/25 05:22:03;;;;;;;;;;;-0.40;99.90;;;;;;5021443;28;19956;-70
2022/01/25 05:22:20;;;;;;;;;;;-0.30;99.90;;;;;;5008117;28;19922;-70
2022/01/25 05:24:48;;;;;;;;;;;-0.30;99.90;;;;;;5021560;28;20227;-69
2022/01/25 05:27:15;;;;;;;;;;;-0.30;99.90;;;;;;5030097;28;19921;-69
2022/01/25 05:29:42;;;;;;;;;;;-0.30;99.90;;;;;;5012283;28;19922;-69
2022/01/25 05:32:10;;;;;;;;;;;-0.30;99.90;;;;;;5026093;28;19928;-69
2022/01/25 05:34:38;;;;;;;;;;;-0.30;99.90;;;;;;5044609;28;20108;-69
2022/01/25 05:37:07;;;;;;;;;;;-0.20;99.90;;;;;;5046277;28;19945;-68
2022/01/25 05:39:36;;;;;;;;;;;-0.30;99.90;;;;;;5039918;28;19921;-69
2022/01/25 05:42:18;;;;;;;;;;;-0.30;99.90;;;;;;5047169;28;20103;-68
2022/01/25 05:44:55;;;;;;;;;;;-0.40;99.90;;;;;;5022546;28;19943;-67
2022/01/25 05:47:28;;;;;;;;;;;-0.50;99.90;;;;;;5029321;28;19921;-69
2022/01/25 05:49:54;;;;;;;;;;;-0.50;99.90;;;;;;5017664;28;19926;-69
2022/01/25 05:52:21;;;;;;;;;;;-0.50;99.90;;;;;;5023298;28;19941;-69
2022/01/25 05:54:48;;;;;;;;;;;-0.50;99.90;;;;;;5024993;28;20004;-69
2022/01/25 05:57:15;;;;;;;;;;;-0.50;99.90;;;;;;5038810;28;19921;-68
2022/01/25 05:59:42;;;;;;;;;;;-0.50;99.90;;;;;;5046914;28;19921;-69
2022/01/25 06:02:09;;;;;;;;;;;-0.50;99.90;;;;;;5026205;28;20213;-69
2022/01/25 06:04:37;;;;;;;;;;;-0.60;99.90;;;;;;5022814;28;20144;-68
2022/01/25 06:07:03;;;;;;;;;;;-0.60;99.90;;;;;;5012429;28;19952;-68
2022/01/25 06:09:30;;;;;;;;;;;-0.60;99.90;;;;;;5037859;28;19921;-69
2022/01/25 06:11:58;;;;;;;;;;;-0.60;99.90;;;;;;5046020;28;19952;-69
2022/01/25 06:14:25;;;;;;;;;;;-0.50;99.90;;;;;;5011509;28;20094;-66
2022/01/25 06:16:52;;;;;;;;;;;-0.50;99.90;;;;;;5019836;28;19921;-70
2022/01/25 06:19:18;;;;;;;;;;;-0.50;99.90;;;;;;5026457;28;19936;-71
2022/01/25 06:21:46;;;;;;;;;;;-0.50;99.90;;;;;;5026351;28;19929;-71
2022/01/25 06:24:13;;;;;;;;;;;-0.60;99.90;;;;;;5025864;28;20227;-70
2022/01/25 06:26:39;;;;;;;;;;;-0.60;99.90;;;;;;5024933;28;19921;-71
2022/01/25 06:29:06;;;;;;;;;;;-0.50;99.90;;;;;;5009600;28;19930;-70
2022/01/25 06:31:32;;;;;;;;;;;-0.50;99.90;;;;;;5021515;28;19980;-69
2022/01/25 06:33:59;;;;;;;;;;;-0.50;99.90;;;;;;5027127;28;19927;-69
2022/01/25 06:36:26;;;;;;;;;;;-0.50;99.90;;;;;;5025016;28;19928;-68
2022/01/25 06:38:54;;;;;;;;;;;-0.50;99.90;;;;;;5021619;28;19988;-69
2022/01/25 06:41:21;;;;;;;;;;;-0.50;99.90;;;;;;5026092;28;19922;-69
2022/01/25 06:43:47;;;;;;;;;;;-0.50;99.90;;;;;;5025015;28;19921;-70
2022/01/25 06:46:14;;;;;;;;;;;-0.50;99.90;;;;;;5025079;28;19980;-69
2022/01/25 06:48:41;;;;;;;;;;;-0.50;99.90;;;;;;5025597;28;19925;-69
2022/01/25 06:51:07;;;;;;;;;;;-0.50;99.90;;;;;;5025415;28;20223;-69
2022/01/25 06:53:34;;;;;;;;;;;-0.50;99.90;;;;;;5013464;28;19927;-68
2022/01/25 06:56:04;;;;;;;;;;;-0.40;99.90;;;;;;5025212;28;19921;-69
2022/01/25 06:58:30;;;;;;;;;;;-0.40;99.90;;;;;;5017252;28;19949;-69
2022/01/25 07:00:57;;;;;;;;;;;-0.40;99.90;;;;;;5007885;28;20137;-69
2022/01/25 07:03:24;;;;;;;;;;;-0.50;99.90;;;;;;5025526;28;19922;-69
2022/01/25 07:05:50;;;;;;;;;;;-0.40;99.90;;;;;;5021619;28;20105;-69
2022/01/25 07:08:17;;;;;;;;;;;-0.40;99.90;;;;;;5022174;28;20048;-69
2022/01/25 07:10:43;;;;;;;;;;;-0.40;99.90;;;;;;5020844;28;19928;-69
2022/01/25 07:13:11;;;;;;;;;;;-0.30;99.90;;;;;;5009879;28;19928;-69
2022/01/25 07:15:38;;;;;;;;;;;-0.40;99.90;;;;;;5012962;28;20188;-69
2022/01/25 07:18:05;;;;;;;;;;;-0.40;99.90;;;;;;5005955;28;19985;-69
2022/01/25 07:20:31;;;;;;;;;;;-0.40;99.90;;;;;;5019441;28;20108;-69
2022/01/25 07:22:58;;;;;;;;;;;-0.50;99.90;;;;;;5026013;28;19927;-69
2022/01/25 07:25:26;;;;;;;;;;;-0.40;99.90;;;;;;5027023;28;19922;-69
2022/01/25 07:27:52;;;;;;;;;;;-0.40;99.90;;;;;;5023076;28;19929;-69
2022/01/25 07:30:21;;;;;;;;;;;-0.40;99.90;;;;;;5025955;28;20227;-68
2022/01/25 07:32:47;;;;;;;;;;;-0.40;99.90;;;;;;5026186;28;19927;-68
2022/01/25 07:35:14;;;;;;;;;;;-0.40;99.90;;;;;;5020823;28;19932;-67
2022/01/25 07:37:41;;;;;;;;;;;-0.40;99.90;;;;;;5020689;28;19936;-69
2022/01/25 07:40:08;;;;;;;;;;;-0.30;99.90;;;;;;5022570;28;20209;-69
2022/01/25 07:42:37;;;;;;;;;;;-0.30;99.90;;;;;;5024237;28;19936;-69
2022/01/25 07:45:07;;;;;;;;;;;-0.30;99.90;;;;;;5022844;28;19989;-70
2022/01/25 07:47:36;;;;;;;;;;;-0.30;99.90;;;;;;5024618;28;19925;-69
2022/01/25 07:50:03;;;;;;;;;;;-0.30;99.90;;;;;;5024426;28;19993;-69
2022/01/25 07:52:30;;;;;;;;;;;-0.30;99.90;;;;;;5024161;28;19921;-68
2022/01/25 07:54:56;;;;;;;;;;;-0.40;99.90;;;;;;5013072;28;19928;-69
2022/01/25 07:57:23;;;;;;;;;;;-0.50;99.90;;;;;;5004488;28;19922;-69
2022/01/25 07:59:49;;;;;;;;;;;-0.50;99.90;;;;;;5024385;28;19921;-69
2022/01/25 08:02:17;;;;;;;;;;;-0.40;99.90;;;;;;5033361;28;20112;-69
2022/01/25 08:04:45;;;;;;;;;;;-0.50;99.90;;;;;;5023362;28;19927;-69
2022/01/25 08:07:12;;;;;;;;;;;-0.50;99.90;;;;;;5024323;28;19929;-70
2022/01/25 08:09:38;;;;;;;;;;;-0.50;99.90;;;;;;5023650;28;19929;-68
2022/01/25 08:12:05;;;;;;;;;;;-0.50;99.90;;;;;;5024175;28;19981;-69
2022/01/25 08:14:32;;;;;;;;;;;-0.40;99.90;;;;;;5019877;28;20156;-69
2022/01/25 08:16:59;;;;;;;;;;;-0.50;99.90;;;;;;5014069;28;19922;-68
2022/01/25 08:19:25;;;;;;;;;;;-0.50;99.90;;;;;;5021591;28;19927;-69
2022/01/25 08:21:53;;;;;;;;;;;-0.50;99.90;;;;;;5024244;28;19921;-69
2022/01/25 08:24:20;;;;;;;;;;;-0.50;99.90;;;;;;5025374;28;20240;-69
2022/01/25 08:26:47;;;;;;;;;;;-0.50;99.90;;;;;;5027678;28;19921;-69
2022/01/25 08:29:13;;;;;;;;;;;-0.50;99.90;;;;;;5007616;28;19921;-69
2022/01/25 08:31:40;;;;;;;;;;;-0.40;99.90;;;;;;5023493;28;19988;-70
2022/01/25 08:34:07;;;;;;;;;;;-0.40;99.90;;;;;;5023903;28;19996;-68
2022/01/25 08:36:34;;;;;;;;;;;-0.40;99.90;;;;;;5022999;28;20212;-69
2022/01/25 08:39:04;;;;;;;;;;;-0.50;99.90;;;;;;5020429;28;19930;-69
2022/01/25 08:41:30;;;;;;;;;;;-0.50;99.90;;;;;;5023473;28;19922;-69
2022/01/25 08:43:57;;;;;;;;;;;-0.50;99.90;;;;;;5022410;28;19927;-68
2022/01/25 08:46:24;;;;;;;;;;;-0.50;99.90;;;;;;5004479;28;19922;-69
2022/01/25 08:48:50;;;;;;;;;;;-0.50;99.90;;;;;;5016655;28;19921;-68
2022/01/25 08:51:17;;;;;;;;;;;-0.50;99.90;;;;;;5029777;28;19921;-68
2022/01/25 08:53:44;;;;;;;;;;;-0.40;99.90;;;;;;5025189;28;19921;-70
2022/01/25 08:56:12;;;;;;;;;;;-0.40;99.90;;;;;;5023429;28;20116;-68
2022/01/25 08:58:39;;;;;;;;;;;-0.40;99.90;;;;;;5023611;28;19928;-69
2022/01/25 09:01:05;;;;;;;;;;;-0.40;99.90;;;;;;5023628;28;19921;-69
2022/01/25 09:03:32;;;;;;;;;;;-0.40;99.90;;;;;;5022535;28;19929;-70
2022/01/25 09:05:58;;;;;;;;;;;-0.40;99.90;;;;;;5023324;28;19992;-69
2022/01/25 09:08:28;;;;;;;;;;;-0.40;99.90;;;;;;5023000;28;19926;-69
2022/01/25 09:10:58;;;;;;;;;;;-0.40;99.90;;;;;;5025641;28;19930;-69
2022/01/25 09:13:27;;;;;;;;;;;-0.40;99.90;;;;;;5022369;28;20221;-69
2022/01/25 09:15:53;;;;;;;;;;;-0.30;99.90;;;;;;5016869;28;19927;-68
2022/01/25 09:18:20;;;;;;;;;;;-0.40;99.90;;;;;;5018426;28;19922;-68
2022/01/25 09:20:47;;;;;;;;;;;-0.40;99.90;;;;;;5022941;28;19929;-69
2022/01/25 09:23:16;;;;;;;;;;;-0.50;99.90;;;;;;5023112;28;19928;-69
2022/01/25 09:25:42;;;;;;;;;;;-0.40;99.90;;;;;;5038290;28;19921;-69
2022/01/25 09:28:09;;;;;;;;;;;-0.40;99.90;;;;;;5021175;28;19928;-69
2022/01/25 09:30:37;;;;;;;;;;;-0.30;99.90;;;;;;5022909;28;19922;-68
2022/01/25 09:33:03;;;;;;;;;;;-0.30;99.90;;;;;;5023424;28;19934;-69
2022/01/25 09:35:30;;;;;;;;;;;-0.20;99.90;;;;;;5013683;28;19984;-68
2022/01/25 09:37:58;;;;;;;;;;;-0.20;99.90;;;;;;5019611;28;19932;-69
2022/01/25 09:40:25;;;;;;;;;;;-0.20;99.90;;;;;;5009330;28;19922;-68
2022/01/25 09:42:54;;;;;;;;;;;-0.20;99.90;;;;;;5003525;28;19956;-69
2022/01/25 09:45:21;;;;;;;;;;;-0.10;99.90;;;;;;5003098;28;19922;-69
2022/01/25 09:47:51;;;;;;;;;;;-0.10;99.90;;;;;;5022311;28;19929;-69
2022/01/25 09:50:17;;;;;;;;;;;-0.10;99.90;;;;;;5004740;28;20228;-69
2022/01/25 09:52:44;;;;;;;;;;;-0.10;99.90;;;;;;5018326;28;19925;-69
2022/01/25 09:55:12;;;;;;;;;;;-0.10;99.90;;;;;;5002311;28;20237;-70
2022/01/25 09:57:39;;;;;;;;;;;-0.20;99.90;;;;;;5018818;28;20210;-68
2022/01/25 10:00:06;;;;;;;;;;;-0.20;99.90;;;;;;5011544;28;19984;-69
2022/01/25 10:02:37;;;;;;;;;;;-0.20;99.90;;;;;;5022816;28;19944;-69
2022/01/25 10:05:17;;;;;;;;;;;-0.10;99.90;;;;;;5019774;28;19984;-69
2022/01/25 10:07:43;;;;;;;;;;;-0.10;99.90;;;;;;5016357;28;19953;-69
2022/01/25 10:10:10;;;;;;;;;;;0.00;99.90;;;;;;5022803;28;20108;-69
2022/01/25 10:12:37;;;;;;;;;;;0.00;99.90;;;;;;5020672;28;20293;-69
2022/01/25 10:15:10;;;;;;;;;;;0.00;99.90;;;;;;5009715;28;19928;-68
2022/01/25 10:17:37;;;;;;;;;;;0.00;99.90;;;;;;5022496;28;19925;-68
2022/01/25 10:20:04;;;;;;;;;;;0.00;99.90;;;;;;5023694;28;19969;-69
2022/01/25 10:22:45;;;;;;;;;;;0.00;99.90;;;;;;5032401;28;20092;-68
2022/01/25 10:25:12;;;;;;;;;;;0.10;99.90;;;;;;5006349;28;19937;-69
2022/01/25 10:28:04;;;;;;;;;;;0.10;99.90;;;;;;5020816;28;19921;-68
2022/01/25 10:30:31;;;;;;;;;;;0.10;99.90;;;;;;5020652;28;19928;-69
2022/01/25 10:33:00;;;;;;;;;;;0.20;99.90;;;;;;5015779;28;19968;-69
2022/01/25 10:35:28;;;;;;;;;;;0.20;99.90;;;;;;5030733;28;20098;-69
2022/01/25 10:37:56;;;;;;;;;;;0.20;99.90;;;;;;5034505;28;19928;-69
2022/01/25 10:40:35;;;;;;;;;;;0.20;99.90;;;;;;5024981;28;19921;-69
2022/01/25 10:43:02;;;;;;;;;;;0.30;99.90;;;;;;5035319;28;19925;-68
2022/01/25 10:45:28;;;;;;;;;;;0.30;99.90;;;;;;5025004;28;19929;-68
2022/01/25 10:47:56;;;;;;;;;;;0.20;99.90;;;;;;5025466;28;19921;-68
2022/01/25 10:50:25;;;;;;;;;;;0.30;99.90;;;;;;5025170;28;19925;-69
2022/01/25 10:53:04;;;;;;;;;;;0.30;99.90;;;;;;5025736;28;19957;-68
2022/01/25 10:55:36;;;;;;;;;;;0.30;99.90;;;;;;5007338;28;19997;-69
2022/01/25 10:58:03;;;;;;;;;;;0.40;99.90;;;;;;5026021;28;19922;-68
2022/01/25 11:00:31;;;;;;;;;;;0.40;99.90;;;;;;5038867;28;20212;-69
2022/01/25 11:02:57;;;;;;;;;;;0.40;99.90;;;;;;5018779;28;19928;-68
2022/01/25 11:05:25;;;;;;;;;;;0.40;99.90;;;;;;5024357;28;19925;-70
2022/01/25 11:07:52;;;;;;;;;;;0.40;99.90;;;;;;5022414;28;20004;-68
2022/01/25 11:10:20;;;;;;;;;;;0.40;99.90;;;;;;5024569;28;19921;-68
2022/01/25 11:13:00;;;;;;;;;;;0.40;99.90;;;;;;5024825;28;19921;-70
2022/01/25 11:15:27;;;;;;;;;;;0.40;99.90;;;;;;5024736;28;19921;-68
2022/01/25 11:17:53;;;;;;;;;;;0.50;99.90;;;;;;5021613;28;19922;-69
2022/01/25 11:20:20;;;;;;;;;;;0.50;99.90;;;;;;5024965;28;20225;-68
2022/01/25 11:22:46;;;;;;;;;;;0.50;99.90;;;;;;5024111;28;20124;-68
2022/01/25 11:25:15;;;;;;;;;;;0.50;99.90;;;;;;5021415;28;20090;-68
2022/01/25 11:27:43;;;;;;;;;;;0.50;99.90;;;;;;5023727;28;19926;-69
2022/01/25 11:30:12;;;;;;;;;;;0.50;99.90;;;;;;5033012;28;20105;-69
2022/01/25 11:32:40;;;;;;;;;;;0.50;99.90;;;;;;5023822;28;19928;-69
2022/01/25 11:35:08;;;;;;;;;;;0.50;99.90;;;;;;5024038;28;19943;-68
2022/01/25 11:37:36;;;;;;;;;;;0.50;99.90;;;;;;5027973;28;20156;-68
2022/01/25 11:40:03;;;;;;;;;;;0.50;99.90;;;;;;5005974;28;19988;-69
2022/01/25 11:42:36;;;;;;;;;;;0.50;99.90;;;;;;5020682;28;19922;-69
2022/01/25 11:45:06;;;;;;;;;;;0.50;99.90;;;;;;5004877;28;19928;-69
2022/01/25 11:47:33;;;;;;;;;;;0.60;99.90;;;;;;5017124;28;19921;-70
2022/01/25 11:50:01;;;;;;;;;;;0.60;99.90;;;;;;5024032;28;20219;-68
2022/01/25 11:52:28;;;;;;;;;;;0.60;99.90;;;;;;5021553;28;19922;-68
2022/01/25 11:55:15;;;;;;;;;;;0.60;99.90;;;;;;5011417;28;19922;-69
2022/01/25 11:57:46;;;;;;;;;;;0.60;99.90;;;;;;5005952;28;19984;-68
2022/01/25 12:00:15;;;;;;;;;;;0.50;99.90;;;;;;5005527;28;19945;-69
2022/01/25 12:02:42;;;;;;;;;;;0.60;99.90;;;;;;5024250;28;19921;-69
2022/01/25 12:05:10;;;;;;;;;;;0.60;99.90;;;;;;5023107;28;19928;-68
2022/01/25 12:07:40;;;;;;;;;;;0.60;99.90;;;;;;5026166;28;19922;-68
2022/01/25 12:10:22;;;;;;;;;;;0.60;99.90;;;;;;5004665;28;19922;-69
2022/01/25 12:13:03;;;;;;;;;;;0.60;99.90;;;;;;5010324;28;19921;-68
2022/01/25 12:15:31;;;;;;;;;;;0.60;99.90;;;;;;5015479;28;19928;-68
2022/01/25 12:17:58;;;;;;;;;;;0.60;99.90;;;;;;5024098;28;19921;-68
2022/01/25 12:20:24;;;;;;;;;;;0.60;99.90;;;;;;5023336;28;19927;-67
2022/01/25 12:23:04;;;;;;;;;;;0.70;99.90;;;;;;5025151;28;20327;-69
2022/01/25 12:25:35;;;;;;;;;;;0.70;99.90;;;;;;5017429;28;19921;-69
2022/01/25 12:28:07;;;;;;;;;;;0.70;99.90;;;;;;5023312;28;19921;-69
2022/01/25 12:30:38;;;;;;;;;;;0.70;99.90;;;;;;5023764;28;19921;-69
2022/01/25 12:33:07;;;;;;;;;;;0.70;99.90;;;;;;5013597;28;19925;-69
2022/01/25 12:35:35;;;;;;;;;;;0.70;99.90;;;;;;5023167;28;19921;-70
2022/01/25 12:38:03;;;;;;;;;;;0.70;99.90;;;;;;5019145;28;19925;-71
2022/01/25 12:40:34;;;;;;;;;;;0.70;99.90;;;;;;5021214;28;19928;-69
2022/01/25 12:43:02;;;;;;;;;;;0.70;99.90;;;;;;5011780;28;19922;-69
2022/01/25 12:45:30;;;;;;;;;;;0.70;99.90;;;;;;5023489;28;19928;-69
2022/01/25 12:47:59;;;;;;;;;;;0.80;99.90;;;;;;5022265;28;19922;-69
2022/01/25 12:50:27;;;;;;;;;;;0.80;99.90;;;;;;5022635;28;19921;-69
2022/01/25 12:52:54;;;;;;;;;;;0.80;99.90;;;;;;5021753;28;19938;-69
2022/01/25 12:55:24;;;;;;;;;;;0.80;99.90;;;;;;5023512;28;19928;-69
2022/01/25 12:57:51;;;;;;;;;;;0.80;99.90;;;;;;5020630;28;19957;-69
2022/01/25 13:00:18;;;;;;;;;;;0.80;99.90;;;;;;5009237;28;19993;-69
2022/01/25 13:02:45;;;;;;;;;;;0.80;99.90;;;;;;5019119;28;19929;-69
2022/01/25 13:05:16;;;;;;;;;;;0.80;99.90;;;;;;5021138;28;19922;-69
2022/01/25 13:07:43;;;;;;;;;;;0.80;99.90;;;;;;5031531;28;19929;-69
2022/01/25 13:10:11;;;;;;;;;;;0.90;99.90;;;;;;5023033;28;19921;-69
2022/01/25 13:12:55;;;;;;;;;;;0.80;99.90;;;;;;5023021;28;20228;-69
2022/01/25 13:15:40;;;;;;;;;;;0.80;99.90;;;;;;5026802;28;19959;-69
2022/01/25 13:18:10;;;;;;;;;;;0.80;99.90;;;;;;5025251;28;19992;-69
2022/01/25 13:20:39;;;;;;;;;;;0.90;99.90;;;;;;5011381;28;19928;-70
2022/01/25 13:23:06;;;;;;;;;;;0.90;99.90;;;;;;5026564;28;19922;-69
2022/01/25 13:25:45;;;;;;;;;;;0.90;99.90;;;;;;5040592;28;20213;-69
2022/01/25 13:28:22;;;;;;;;;;;0.80;99.90;;;;;;5024440;28;19968;-69
2022/01/25 13:30:49;;;;;;;;;;;0.90;99.90;;;;;;5020187;28;19921;-70
2022/01/25 13:33:18;;;;;;;;;;;0.80;99.90;;;;;;5023094;28;19921;-69
2022/01/25 13:35:50;;;;;;;;;;;0.70;99.90;;;;;;5012910;28;20278;-69
2022/01/25 13:38:18;;;;;;;;;;;0.70;99.90;;;;;;5018219;28;20058;-69
2022/01/25 13:40:50;;;;;;;;;;;0.70;99.90;;;;;;5011937;28;19927;-69
2022/01/25 13:43:33;;;;;;;;;;;0.70;99.90;;;;;;5017659;28;19925;-69
2022/01/25 13:46:00;;;;;;;;;;;0.70;99.90;;;;;;5003286;28;19961;-69
2022/01/25 13:48:27;;;;;;;;;;;0.70;99.90;;;;;;5021663;28;19926;-69
2022/01/25 13:50:56;;;;;;;;;;;0.70;99.90;;;;;;5022430;28;20001;-70
2022/01/25 13:53:22;;;;;;;;;;;0.70;99.90;;;;;;5018288;28;19925;-69
2022/01/25 13:55:50;;;;;;;;;;;0.80;99.90;;;;;;5031355;28;19928;-69
2022/01/25 13:58:20;;;;;;;;;;;0.70;99.90;;;;;;5010337;28;19922;-69
2022/01/25 14:00:47;;;;;;;;;;;0.80;99.90;;;;;;5044718;28;19928;-69
2022/01/25 14:03:15;;;;;;;;;;;0.70;99.90;;;;;;5023207;28;19928;-69
2022/01/25 14:05:41;;;;;;;;;;;0.70;99.90;;;;;;5037360;28;19921;-69
2022/01/25 14:08:10;;;;;;;;;;;0.60;99.90;;;;;;5020665;28;20011;-69
2022/01/25 14:10:36;;;;;;;;;;;0.60;99.90;;;;;;5016169;28;19925;-69
2022/01/25 14:21:56;;;;;;;;;;;0.60;99.90;;;;;;5029620;28;19924;-68
2022/01/25 14:24:30;;;;;;;;;;;0.70;99.90;;;;;;5007167;28;19961;-69
2022/01/25 14:26:58;;;;;;;;;;;0.70;99.90;;;;;;5032797;28;20141;-68
2022/01/25 14:29:25;;;;;;;;;;;0.80;99.90;;;;;;5030794;28;19953;-68
2022/01/25 14:31:52;;;;;;;;;;;0.70;99.90;;;;;;5036634;28;19928;-68
2022/01/25 14:34:20;;;;;;;;;;;0.70;99.90;;;;;;5035338;28;20213;-69
2022/01/25 14:36:48;;;;;;;;;;;0.70;99.90;;;;;;5037825;28;19921;-68
2022/01/25 14:39:15;;;;;;;;;;;0.80;99.90;;;;;;5026067;28;19922;-68
2022/01/25 14:41:43;;;;;;;;;;;0.80;99.90;;;;;;5043209;28;19921;-69
2022/01/25 14:44:10;;;;;;;;;;;0.80;99.90;;;;;;5011098;28;19953;-69
2022/01/25 14:46:39;;;;;;;;;;;0.80;99.90;;;;;;5029717;28;20116;-68
2022/01/25 14:49:10;;;;;;;;;;;0.70;99.90;;;;;;5052094;23;19921;-91
2022/01/25 14:51:37;;;;;;;;;;;0.80;99.90;;;;;;5033631;28;19928;-88
2022/01/25 14:54:05;;;;;;;;;;;0.80;99.90;;;;;;5020440;28;19997;-88
2022/01/25 14:56:32;;;;;;;;;;;0.80;99.90;;;;;;5020451;28;19922;-91
2022/01/25 15:01:49;;;;;;;;;;;0.80;99.90;;;;;;5028241;28;19934;-89
2022/01/25 15:04:16;;;;;;;;;;;0.90;99.90;;;;;;5026384;28;19977;-89
2022/01/25 15:06:42;;;;;;;;;;;1.80;99.90;;;;;;5026935;28;19969;-89
2022/01/25 15:09:09;;;;;;;;;;;0.70;99.90;;;;;;5019106;28;19930;-91
2022/01/25 15:11:36;;;;;;;;;;;0.80;99.90;;;;;;5019400;28;19948;-91
2022/01/25 15:14:09;;;;;;;;;;;1.80;99.90;;;;;;5019285;28;19948;-91
2022/01/25 15:16:36;;;;;;;;;;;0.80;99.90;;;;;;5019850;28;19929;-93
2022/01/25 15:19:03;;;;;;;;;;;1.70;99.90;;;;;;5019172;28;19978;-90
2022/01/25 15:21:30;;;;;;;;;;;0.70;99.90;;;;;;5020197;28;19917;-92
2022/01/25 15:23:58;;;;;;;;;;;0.70;99.90;;;;;;5019089;28;19914;-91
2022/01/25 15:26:27;;;;;;;;;;;0.60;99.90;;;;;;5020038;28;19926;-91
2022/01/25 15:28:57;;;;;;;;;;;0.70;99.90;;;;;;5034861;28;19935;-91
2022/01/25 15:31:26;;;;;;;;;;;0.60;99.90;;;;;;5039021;28;19998;-94
2022/01/25 15:33:53;;;;;;;;;;;1.50;99.90;;;;;;5031234;28;19940;-92
2022/01/25 15:36:20;;;;;;;;;;;1.40;99.90;;;;;;5019857;28;19940;-92
2022/01/25 15:38:49;;;;;;;;;;;-0.20;99.90;;;;;;5019476;28;19914;-91
2022/01/25 15:41:17;;;;;;;;;;;0.60;99.90;;;;;;5019795;28;19916;-92
2022/01/25 15:43:49;;;;;;;;;;;0.60;99.90;;;;;;5007737;28;19946;-90
2022/01/25 15:46:23;;;;;;;;;;;0.50;99.90;;;;;;5012770;28;19910;-91
2022/01/25 15:48:52;;;;;;;;;;;1.00;99.90;;;;;;5019083;28;19928;-91
2022/01/25 15:51:21;;;;;;;;;;;0.60;99.90;;;;;;5018559;28;19921;-92
2022/01/25 15:53:47;;;;;;;;;;;0.60;99.90;;;;;;5019469;28;19973;-92
2022/01/25 15:56:15;;;;;;;;;;;0.60;99.90;;;;;;5019379;28;19917;-93
2022/01/25 15:58:42;;;;;;;;;;;0.60;99.90;;;;;;5059526;23;19992;-69